Time;durP1;ratioP1;P1;durP2;ratioP2;P2;SDS_P1;SDS_P2;PMS_P1;PMS_P2;Temp;Humidity;BMP_temperature;BMP_pressure;BME280_temperature;BME280_humidity;BME280_pressure;Samples;Min_cycle;Max_cycle;Signal;HPM_P1;HPM_P2
2022/12/28 00:00:21;;;;;;;61.35;35.83;;;12.30;93.90;;;;;;6339044;22;20067;-77
2022/12/28 00:02:46;;;;;;;57.42;34.67;;;12.30;93.90;;;;;;6338557;22;20002;-77
2022/12/28 00:05:12;;;;;;;62.50;35.10;;;12.30;93.90;;;;;;6338749;22;19999;-73
2022/12/28 00:07:38;;;;;;;56.10;34.30;;;12.30;93.90;;;;;;6310579;22;20033;-73
2022/12/28 00:10:04;;;;;;;58.17;34.17;;;12.40;93.80;;;;;;6338084;22;19999;-73
2022/12/28 00:12:31;;;;;;;55.35;34.28;;;12.40;93.80;;;;;;6338158;22;20001;-73
2022/12/28 00:14:58;;;;;;;57.65;33.85;;;12.50;93.80;;;;;;6338326;22;19998;-73
2022/12/28 00:17:23;;;;;;;61.35;37.13;;;12.50;93.70;;;;;;6337309;22;20040;-74
2022/12/28 00:19:49;;;;;;;62.40;35.53;;;12.50;93.70;;;;;;6334456;22;20003;-74
2022/12/28 00:22:15;;;;;;;54.67;32.95;;;12.50;93.60;;;;;;6335928;22;20003;-74
2022/12/28 00:24:41;;;;;;;59.30;34.15;;;12.40;93.70;;;;;;6336078;22;20006;-74
2022/12/28 00:27:07;;;;;;;58.67;34.90;;;12.40;93.70;;;;;;6336577;22;20013;-74
2022/12/28 00:29:32;;;;;;;67.25;38.97;;;12.40;93.70;;;;;;6336001;22;20298;-73
2022/12/28 00:31:58;;;;;;;63.30;38.13;;;12.40;93.70;;;;;;6336610;22;20356;-74
2022/12/28 00:34:24;;;;;;;58.65;33.50;;;12.30;93.70;;;;;;6337091;22;20006;-73
2022/12/28 00:36:51;;;;;;;61.25;36.28;;;12.30;93.70;;;;;;6336674;22;19999;-74
2022/12/28 00:39:17;;;;;;;57.53;34.78;;;12.30;93.90;;;;;;6337372;22;19999;-73
2022/12/28 00:41:43;;;;;;;59.47;35.60;;;12.20;93.90;;;;;;6337620;22;20021;-73
2022/12/28 00:44:08;;;;;;;64.03;36.78;;;12.20;93.90;;;;;;6338561;22;20408;-73
2022/12/28 00:46:34;;;;;;;51.33;33.13;;;12.20;94.00;;;;;;6337995;22;20079;-73
2022/12/28 00:49:00;;;;;;;55.67;34.28;;;12.20;94.10;;;;;;6337637;22;20010;-73
2022/12/28 00:51:26;;;;;;;57.45;34.67;;;12.20;94.00;;;;;;6338186;22;20003;-73
2022/12/28 00:53:52;;;;;;;56.78;33.80;;;12.20;94.00;;;;;;6338314;22;20005;-74
2022/12/28 00:56:20;;;;;;;58.53;37.35;;;12.20;94.00;;;;;;6337659;22;20003;-73
2022/12/28 00:58:46;;;;;;;61.00;36.90;;;12.20;94.00;;;;;;6337899;22;20489;-74
2022/12/28 01:01:22;;;;;;;54.83;35.47;;;12.20;94.10;;;;;;6338068;22;20448;-73
2022/12/28 01:03:48;;;;;;;50.25;32.13;;;12.20;94.00;;;;;;6338548;22;20162;-73
2022/12/28 01:06:16;;;;;;;59.83;36.22;;;12.20;94.00;;;;;;6337908;22;20531;-74
2022/12/28 01:08:42;;;;;;;54.85;34.05;;;12.20;94.00;;;;;;6337733;22;20052;-74
2022/12/28 01:11:17;;;;;;;53.80;33.42;;;12.10;94.00;;;;;;6310125;22;20007;-74
2022/12/28 01:13:43;;;;;;;50.17;32.70;;;12.20;94.00;;;;;;6338087;22;20001;-74
2022/12/28 01:16:24;;;;;;;56.20;34.10;;;12.20;94.00;;;;;;6338095;22;20287;-74
2022/12/28 01:18:55;;;;;;;;;;;12.20;94.00;;;;;;6338053;22;20809;-74
2022/12/28 01:21:23;;;;;;;56.97;33.30;;;12.20;94.00;;;;;;6337388;22;19899;-74
2022/12/28 01:23:56;;;;;;;50.50;30.40;;;12.20;94.10;;;;;;6338097;22;20006;-74
2022/12/28 01:26:23;;;;;;;65.38;38.40;;;12.10;94.10;;;;;;6309858;22;20007;-74
2022/12/28 01:28:49;;;;;;;49.22;30.50;;;12.00;94.20;;;;;;6337020;22;20042;-74
2022/12/28 01:31:17;;;;;;;62.58;36.50;;;12.00;94.40;;;;;;6337231;22;20013;-73
2022/12/28 01:33:43;;;;;;;58.42;33.08;;;12.00;94.40;;;;;;6337643;22;20003;-72
2022/12/28 01:36:16;;;;;;;59.22;33.00;;;12.00;94.40;;;;;;6338184;22;19999;-74
2022/12/28 01:38:43;;;;;;;53.13;33.05;;;11.90;94.40;;;;;;6337911;22;20026;-73
2022/12/28 01:41:11;;;;;;;53.92;31.92;;;11.90;94.40;;;;;;6337677;22;19998;-74
2022/12/28 01:43:47;;;;;;;49.00;29.58;;;12.00;94.40;;;;;;6337448;22;20006;-73
2022/12/28 01:46:20;;;;;;;50.95;30.52;;;12.00;94.30;;;;;;6337438;22;20417;-73
2022/12/28 01:49:30;;;;;;;50.63;31.75;;;12.00;94.30;;;;;;6337937;22;20014;-73
2022/12/28 01:52:05;;;;;;;46.17;28.77;;;12.10;94.20;;;;;;6337687;22;20086;-73
2022/12/28 01:55:07;;;;;;;47.92;28.48;;;12.10;94.10;;;;;;6337347;22;20060;-73
2022/12/28 01:57:47;;;;;;;46.28;27.60;;;12.10;94.00;;;;;;6337619;22;20021;-73
2022/12/28 02:00:14;;;;;;;40.58;25.52;;;12.20;94.00;;;;;;6337325;22;20003;-73
2022/12/28 02:02:45;;;;;;;42.05;26.70;;;12.20;93.80;;;;;;6309588;22;20508;-73
2022/12/28 02:05:11;;;;;;;44.05;26.63;;;12.30;93.80;;;;;;6337235;22;19999;-73
2022/12/28 02:07:51;;;;;;;39.13;25.40;;;12.30;93.70;;;;;;6337330;22;19999;-72
2022/12/28 02:10:19;;;;;;;41.28;23.92;;;12.30;93.60;;;;;;6336532;22;20421;-72
2022/12/28 02:12:44;;;;;;;40.45;24.25;;;12.30;93.50;;;;;;6337576;22;19995;-73
2022/12/28 02:15:10;;;;;;;37.65;22.90;;;12.30;93.30;;;;;;6336370;22;20298;-72
2022/12/28 02:17:36;;;;;;;33.97;21.70;;;12.40;93.20;;;;;;6337235;22;20329;-72
2022/12/28 02:20:05;;;;;;;37.75;22.73;;;12.40;93.10;;;;;;6337103;22;20029;-72
2022/12/28 02:22:48;;;;;;;35.03;21.92;;;12.40;93.00;;;;;;6338087;22;20003;-73
2022/12/28 02:25:35;;;;;;;32.38;19.35;;;12.40;92.90;;;;;;6337935;22;20079;-73
2022/12/28 02:28:38;;;;;;;28.17;18.38;;;12.40;92.70;;;;;;6338677;22;20021;-73
2022/12/28 02:31:15;;;;;;;30.92;18.35;;;12.40;92.60;;;;;;6338786;22;20003;-73
2022/12/28 02:34:08;;;;;;;29.40;18.63;;;12.40;92.50;;;;;;6332353;22;20104;-76
2022/12/28 02:36:45;;;;;;;26.13;16.23;;;12.50;92.50;;;;;;6339265;22;20336;-76
2022/12/28 02:39:31;;;;;;;21.17;13.70;;;12.30;92.10;;;;;;6339297;22;20023;-76
2022/12/28 02:41:58;;;;;;;26.70;16.80;;;12.40;92.20;;;;;;6339556;22;20475;-76
2022/12/28 02:50:05;;;;;;;26.23;17.45;;;12.40;92.10;;;;;;6339591;22;20017;-76
2022/12/28 02:52:47;;;;;;;31.15;18.63;;;12.30;92.20;;;;;;6312053;22;20443;-76
2022/12/28 02:56:06;;;;;;;29.45;18.88;;;12.30;91.80;;;;;;6339670;22;20020;-76
2022/12/28 02:58:58;;;;;;;24.83;16.15;;;12.20;92.00;;;;;;6339417;22;20002;-77
2022/12/28 03:02:03;;;;;;;32.72;20.08;;;12.00;92.20;;;;;;6339971;22;20003;-78
2022/12/28 03:04:57;;;;;;;31.17;18.17;;;12.00;92.40;;;;;;6339694;22;20030;-77
2022/12/28 03:10:42;;;;;;;26.15;17.17;;;12.00;92.30;;;;;;6339886;22;20014;-79
2022/12/28 03:13:41;;;;;;;30.63;18.45;;;12.00;92.40;;;;;;6339179;22;20010;-78
2022/12/28 03:16:03;;;;;;;25.35;16.33;;;12.00;92.40;;;;;;6339010;22;20006;-78
2022/12/28 03:32:31;;;;;;;27.25;15.85;;;12.00;92.30;;;;;;6338296;22;20482;-76
2022/12/28 03:34:57;;;;;;;26.65;16.25;;;12.00;92.30;;;;;;6339187;22;19999;-77
2022/12/28 03:37:42;;;;;;;24.98;16.20;;;12.00;92.30;;;;;;6338279;22;19994;-78
2022/12/28 03:40:26;;;;;;;27.75;17.75;;;12.10;92.40;;;;;;6339040;22;20003;-78
2022/12/28 03:46:03;;;;;;;26.38;17.25;;;12.00;92.20;;;;;;6338689;22;20438;-77
2022/12/28 03:48:32;;;;;;;27.20;16.40;;;11.90;92.20;;;;;;6338410;22;20011;-77
2022/12/28 03:50:59;;;;;;;29.58;16.20;;;12.00;92.30;;;;;;6338858;22;20063;-77
2022/12/28 03:53:29;;;;;;;25.13;15.82;;;12.00;92.30;;;;;;6338795;22;19995;-78
2022/12/28 03:56:24;;;;;;;21.80;15.32;;;12.00;92.30;;;;;;6338836;22;19999;-77
2022/12/28 03:58:50;;;;;;;23.75;15.90;;;11.90;92.10;;;;;;6339243;22;19998;-77
2022/12/28 04:01:16;;;;;;;21.90;14.40;;;12.00;92.10;;;;;;6339216;22;20073;-77
2022/12/28 04:03:42;;;;;;;21.92;15.00;;;12.00;91.90;;;;;;6338750;22;20033;-77
2022/12/28 04:06:15;;;;;;;19.92;13.07;;;12.00;92.00;;;;;;6338358;22;20002;-77
2022/12/28 04:08:45;;;;;;;21.23;14.95;;;11.90;92.00;;;;;;6337966;22;20495;-76
2022/12/28 04:11:11;;;;;;;20.17;13.38;;;11.90;92.00;;;;;;6338384;22;20059;-77
2022/12/28 04:13:37;;;;;;;24.45;15.07;;;11.90;92.00;;;;;;6338076;22;20045;-76
2022/12/28 04:16:09;;;;;;;20.58;14.00;;;11.90;91.90;;;;;;6338719;22;20001;-77
2022/12/28 04:18:34;;;;;;;19.88;14.13;;;11.90;91.90;;;;;;6338944;22;20536;-78
2022/12/28 04:21:00;;;;;;;20.05;13.82;;;12.00;92.00;;;;;;6338860;22;20021;-78
2022/12/28 04:23:27;;;;;;;18.75;13.27;;;12.00;91.80;;;;;;6311332;22;20433;-76
2022/12/28 04:26:05;;;;;;;18.50;12.15;;;11.90;91.70;;;;;;6337978;22;20082;-76
2022/12/28 04:28:32;;;;;;;19.40;12.85;;;11.90;91.70;;;;;;6338716;22;20011;-77
2022/12/28 04:30:59;;;;;;;20.10;12.48;;;11.90;91.70;;;;;;6338720;22;20061;-77
2022/12/28 04:33:26;;;;;;;19.25;12.52;;;11.90;91.70;;;;;;6338071;22;20421;-77
2022/12/28 04:35:52;;;;;;;17.55;12.07;;;11.80;91.70;;;;;;6338513;22;20002;-77
2022/12/28 04:38:18;;;;;;;15.55;10.90;;;11.90;91.70;;;;;;6338288;22;20154;-78
2022/12/28 04:40:44;;;;;;;14.90;10.20;;;11.80;91.60;;;;;;6338790;22;20026;-78
2022/12/28 04:43:10;;;;;;;14.68;9.80;;;11.80;91.40;;;;;;6338443;22;19998;-78
2022/12/28 04:45:36;;;;;;;14.30;9.50;;;11.80;91.40;;;;;;6310375;22;20007;-78
2022/12/28 04:48:02;;;;;;;11.93;8.85;;;11.80;91.40;;;;;;6337730;22;20030;-79
2022/12/28 04:50:28;;;;;;;11.85;7.95;;;11.70;90.90;;;;;;6338653;22;20002;-78
2022/12/28 04:52:54;;;;;;;13.25;8.82;;;11.70;91.10;;;;;;6338579;22;20005;-78
2022/12/28 04:55:20;;;;;;;12.32;7.97;;;11.70;91.20;;;;;;6338734;22;20070;-77
2022/12/28 04:57:46;;;;;;;10.85;7.18;;;11.60;90.90;;;;;;6337244;22;20444;-77
2022/12/28 05:00:13;;;;;;;8.65;6.60;;;11.60;91.10;;;;;;6338917;22;20007;-77
2022/12/28 05:02:39;;;;;;;8.32;6.25;;;11.60;91.00;;;;;;6338610;22;20006;-78
2022/12/28 05:05:04;;;;;;;10.63;6.57;;;11.60;90.90;;;;;;6338551;22;20003;-76
2022/12/28 05:07:30;;;;;;;10.45;6.57;;;11.60;90.90;;;;;;6337191;22;20033;-77
2022/12/28 05:09:56;;;;;;;9.27;5.70;;;11.50;90.60;;;;;;6338154;22;20060;-76
2022/12/28 05:12:22;;;;;;;7.20;5.32;;;11.40;90.70;;;;;;6338054;22;19995;-77
2022/12/28 05:14:48;;;;;;;9.30;5.60;;;11.40;90.80;;;;;;6338050;22;20005;-77
2022/12/28 05:17:14;;;;;;;8.40;5.97;;;11.40;90.80;;;;;;6338288;22;20006;-77
2022/12/28 05:19:40;;;;;;;7.10;5.13;;;11.40;90.80;;;;;;6338156;22;20051;-77
2022/12/28 05:22:10;;;;;;;6.35;4.38;;;11.50;90.70;;;;;;6337412;22;20010;-77
2022/12/28 05:24:37;;;;;;;6.25;4.30;;;11.40;90.70;;;;;;6338471;22;20010;-77
2022/12/28 05:27:03;;;;;;;6.28;4.45;;;11.40;90.60;;;;;;6338591;22;20370;-78
2022/12/28 05:29:28;;;;;;;6.97;4.70;;;11.40;90.60;;;;;;6338202;22;20060;-78
2022/12/28 05:31:54;;;;;;;6.03;4.03;;;11.50;90.50;;;;;;6337744;22;20002;-77
2022/12/28 05:34:19;;;;;;;4.65;3.80;;;11.50;90.50;;;;;;6310453;22;20052;-76
2022/12/28 05:36:45;;;;;;;6.65;4.18;;;11.30;90.20;;;;;;6338026;22;20073;-77
2022/12/28 05:39:11;;;;;;;6.10;4.25;;;11.40;90.40;;;;;;6338264;22;20418;-76
2022/12/28 05:41:37;;;;;;;4.28;3.25;;;11.40;90.40;;;;;;6337990;22;20038;-77
2022/12/28 05:44:03;;;;;;;5.82;4.35;;;11.40;90.20;;;;;;6338435;22;20029;-78
2022/12/28 05:46:31;;;;;;;4.55;3.70;;;11.40;90.20;;;;;;6338290;22;19999;-77
2022/12/28 05:48:57;;;;;;;6.38;3.65;;;11.40;90.20;;;;;;6336972;22;20085;-77
2022/12/28 05:51:26;;;;;;;5.30;3.83;;;11.40;90.30;;;;;;6338259;22;20030;-77
2022/12/28 05:53:52;;;;;;;6.43;3.92;;;11.40;90.10;;;;;;6337815;22;20329;-79
2022/12/28 05:56:23;;;;;;;5.28;4.20;;;11.40;90.10;;;;;;6338101;22;20003;-78
2022/12/28 05:59:01;;;;;;;5.20;3.80;;;11.40;90.20;;;;;;6310452;22;20002;-77
2022/12/28 06:01:33;;;;;;;5.25;4.05;;;11.50;90.10;;;;;;6339782;22;19999;-77
2022/12/28 06:04:07;;;;;;;5.38;3.58;;;11.40;89.80;;;;;;6311801;22;20010;-76
2022/12/28 06:06:34;;;;;;;4.18;3.03;;;11.30;89.40;;;;;;6312321;22;20003;-76
2022/12/28 06:09:01;;;;;;;4.38;2.80;;;11.20;89.10;;;;;;6311704;22;20014;-76
2022/12/28 06:11:28;;;;;;;5.68;3.83;;;11.20;89.70;;;;;;6312068;22;20007;-77
2022/12/28 06:13:54;;;;;;;5.18;3.38;;;11.20;89.50;;;;;;6339112;22;20060;-76
2022/12/28 06:16:25;;;;;;;4.57;2.90;;;11.20;90.00;;;;;;6340080;22;19995;-77
2022/12/28 06:18:51;;;;;;;3.30;2.42;;;11.20;90.00;;;;;;6339265;22;20443;-77
2022/12/28 06:21:29;;;;;;;4.65;2.90;;;11.30;90.00;;;;;;6312235;22;20032;-77
2022/12/28 06:23:59;;;;;;;4.55;3.13;;;11.20;89.60;;;;;;6339376;22;20029;-77
2022/12/28 06:26:26;;;;;;;4.45;3.15;;;11.30;89.60;;;;;;6339735;22;20037;-77
2022/12/28 06:28:53;;;;;;;4.88;2.92;;;11.20;88.70;;;;;;6339997;22;20090;-76
2022/12/28 06:31:25;;;;;;;5.10;3.20;;;11.20;88.80;;;;;;6339295;22;20099;-76
2022/12/28 06:33:55;;;;;;;4.15;2.50;;;11.10;89.20;;;;;;6339490;22;20005;-77
2022/12/28 06:36:28;;;;;;;6.53;2.80;;;11.00;89.10;;;;;;6339446;22;19995;-78
2022/12/28 06:38:56;;;;;;;3.25;2.53;;;11.10;88.90;;;;;;6339700;22;20002;-77
2022/12/28 06:41:22;;;;;;;4.35;2.60;;;11.10;88.50;;;;;;6339661;22;19999;-77
2022/12/28 06:43:49;;;;;;;3.67;2.17;;;11.10;88.90;;;;;;6339331;22;20051;-77
2022/12/28 06:46:16;;;;;;;3.08;2.38;;;11.10;88.50;;;;;;6339702;22;20003;-77
2022/12/28 06:48:42;;;;;;;6.05;2.97;;;11.10;88.60;;;;;;6337695;22;20082;-78
2022/12/28 06:51:12;;;;;;;5.55;3.17;;;11.00;87.50;;;;;;6339353;22;20034;-79
2022/12/28 06:53:38;;;;;;;4.97;2.75;;;11.00;87.20;;;;;;6311081;22;20049;-78
2022/12/28 06:56:11;;;;;;;3.40;2.35;;;10.90;87.80;;;;;;6337698;22;20072;-78
2022/12/28 06:58:37;;;;;;;3.85;2.42;;;10.90;88.10;;;;;;6339050;22;19999;-76
2022/12/28 07:01:20;;;;;;;3.95;1.92;;;10.90;88.00;;;;;;6311865;22;20041;-76
2022/12/28 07:03:47;;;;;;;6.32;3.20;;;10.90;88.20;;;;;;6338321;22;20006;-76
2022/12/28 07:06:15;;;;;;;3.72;2.53;;;10.90;87.40;;;;;;6339085;22;20003;-77
2022/12/28 07:08:42;;;;;;;11.38;2.90;;;10.90;88.20;;;;;;6338900;22;20009;-77
2022/12/28 07:11:13;;;;;;;4.65;2.80;;;10.90;87.60;;;;;;6338863;22;20088;-77
2022/12/28 07:13:39;;;;;;;3.90;2.53;;;10.80;87.40;;;;;;6339196;22;20018;-75
2022/12/28 07:16:08;;;;;;;4.00;2.60;;;10.80;87.40;;;;;;6339261;22;20003;-75
2022/12/28 07:18:34;;;;;;;3.25;2.30;;;10.90;88.10;;;;;;6338721;22;19995;-74
2022/12/28 07:21:24;;;;;;;3.03;2.08;;;10.90;87.70;;;;;;6338338;22;19999;-74
2022/12/28 07:23:51;;;;;;;4.07;2.00;;;11.00;87.80;;;;;;6324194;22;20010;-75
2022/12/28 07:26:20;;;;;;;3.92;1.70;;;11.00;87.10;;;;;;6338020;22;20072;-74
2022/12/28 07:28:48;;;;;;;4.95;2.13;;;11.00;87.80;;;;;;6337421;22;20429;-74
2022/12/28 07:31:16;;;;;;;4.75;2.13;;;11.10;87.60;;;;;;6337949;22;20009;-75
2022/12/28 07:33:43;;;;;;;3.40;2.13;;;11.10;86.70;;;;;;6337863;22;20064;-75
2022/12/28 07:36:11;;;;;;;3.65;1.90;;;11.10;85.50;;;;;;6337977;22;20022;-75
2022/12/28 07:38:37;;;;;;;3.78;2.13;;;11.00;85.90;;;;;;6310874;22;20685;-75
2022/12/28 07:41:10;;;;;;;2.60;1.73;;;11.00;85.80;;;;;;6337540;22;19999;-75
2022/12/28 07:43:36;;;;;;;2.97;2.15;;;11.00;86.50;;;;;;6338394;22;20010;-77
2022/12/28 07:46:04;;;;;;;3.50;2.30;;;11.10;86.50;;;;;;6338686;22;20416;-78
2022/12/28 07:48:34;;;;;;;3.17;2.22;;;11.10;85.90;;;;;;6338822;22;20010;-75
2022/12/28 07:51:11;;;;;;;1.52;1.42;;;11.10;85.20;;;;;;6338481;22;20014;-75
2022/12/28 07:53:38;;;;;;;2.58;1.90;;;11.10;86.00;;;;;;6308254;22;20078;-75
2022/12/28 07:56:05;;;;;;;2.58;2.05;;;11.10;85.60;;;;;;6335969;22;20009;-76
2022/12/28 07:58:31;;;;;;;3.63;2.08;;;11.10;85.60;;;;;;6335765;22;20006;-75
2022/12/28 08:01:11;;;;;;;2.35;1.65;;;11.10;84.50;;;;;;6309784;22;20034;-75
2022/12/28 08:03:38;;;;;;;3.45;2.10;;;11.10;85.60;;;;;;6337333;22;20068;-78
2022/12/28 08:06:10;;;;;;;3.20;2.20;;;11.10;85.20;;;;;;6335936;22;19999;-76
2022/12/28 08:08:41;;;;;;;3.58;2.28;;;11.10;85.30;;;;;;6337379;22;20003;-76
2022/12/28 08:11:13;;;;;;;3.13;2.03;;;11.20;85.40;;;;;;6336972;22;19999;-75
2022/12/28 08:13:42;;;;;;;4.03;2.13;;;11.20;85.30;;;;;;6308475;22;19999;-76
2022/12/28 08:16:13;;;;;;;3.15;2.15;;;11.10;83.70;;;;;;6338166;22;19999;-76
2022/12/28 08:18:39;;;;;;;3.05;1.95;;;11.20;84.60;;;;;;6338514;22;20023;-76
2022/12/28 08:21:13;;;;;;;2.35;1.60;;;11.30;84.80;;;;;;6333611;22;20031;-76
2022/12/28 08:23:40;;;;;;;3.95;1.88;;;11.30;84.90;;;;;;6337611;22;20413;-77
2022/12/28 08:26:09;;;;;;;2.35;1.73;;;11.40;84.80;;;;;;6336491;22;20006;-77
2022/12/28 08:28:36;;;;;;;3.22;2.13;;;11.40;83.90;;;;;;6337180;22;20433;-77
2022/12/28 08:31:14;;;;;;;3.22;1.85;;;11.40;84.20;;;;;;6337098;22;20002;-77
2022/12/28 08:33:39;;;;;;;3.28;1.73;;;11.40;83.60;;;;;;6336070;22;20006;-78
2022/12/28 08:36:06;;;;;;;11.02;1.63;;;11.40;83.00;;;;;;6336391;22;20313;-77
2022/12/28 08:38:32;;;;;;;3.78;1.67;;;11.30;82.70;;;;;;6337392;22;20121;-76
2022/12/28 08:41:00;;;;;;;2.20;1.90;;;11.30;83.50;;;;;;6337019;22;20009;-76
2022/12/28 08:43:27;;;;;;;3.92;1.85;;;11.30;83.50;;;;;;6336896;22;20442;-76
2022/12/28 08:45:57;;;;;;;3.55;2.15;;;11.30;83.20;;;;;;6338203;22;20074;-76
2022/12/28 08:48:23;;;;;;;4.53;2.08;;;11.40;82.80;;;;;;6337855;22;20026;-75
2022/12/28 08:50:48;;;;;;;2.15;1.70;;;11.50;83.60;;;;;;6337709;22;20022;-76
2022/12/28 08:53:14;;;;;;;3.97;1.88;;;11.50;82.60;;;;;;6310139;22;20003;-76
2022/12/28 08:55:39;;;;;;;3.58;1.85;;;11.50;82.70;;;;;;6337004;22;20435;-76
2022/12/28 08:58:05;;;;;;;2.40;1.80;;;11.60;82.70;;;;;;6332408;22;20331;-82
2022/12/28 09:00:31;;;;;;;2.53;1.83;;;11.60;82.10;;;;;;6336118;22;20424;-83
2022/12/28 09:03:01;;;;;;;6.18;2.25;;;11.50;82.60;;;;;;6335737;22;20321;-86
2022/12/28 09:05:27;;;;;;;2.80;2.05;;;11.50;80.90;;;;;;6310947;22;20044;-84
2022/12/28 09:07:53;;;;;;;3.58;1.67;;;11.50;82.10;;;;;;6336781;22;20077;-72
2022/12/28 09:10:19;;;;;;;6.85;1.80;;;11.50;82.00;;;;;;6336037;22;19999;-72
2022/12/28 09:12:44;;;;;;;4.75;1.95;;;11.60;81.50;;;;;;6333905;22;19994;-74
2022/12/28 09:15:10;;;;;;;3.78;2.22;;;11.60;82.20;;;;;;6336806;22;20086;-72
2022/12/28 09:17:36;;;;;;;2.45;2.22;;;11.70;81.50;;;;;;6336363;22;19995;-72
2022/12/28 09:20:02;;;;;;;3.58;2.00;;;11.80;82.30;;;;;;6336875;22;20006;-72
2022/12/28 09:22:30;;;;;;;3.42;1.88;;;11.80;81.30;;;;;;6335939;22;20090;-71
2022/12/28 09:24:56;;;;;;;4.30;1.92;;;11.80;81.60;;;;;;6336963;22;20118;-73
2022/12/28 09:27:21;;;;;;;2.95;1.95;;;11.80;81.40;;;;;;6336530;22;20042;-72
2022/12/28 09:29:47;;;;;;;2.38;1.63;;;11.80;79.70;;;;;;6336509;22;20011;-72
2022/12/28 09:32:13;;;;;;;2.92;1.95;;;11.80;81.40;;;;;;6336845;22;20003;-74
2022/12/28 09:34:38;;;;;;;4.28;2.47;;;11.90;81.50;;;;;;6338230;22;20070;-73
2022/12/28 09:37:05;;;;;;;4.35;1.88;;;12.10;81.60;;;;;;6339203;22;20370;-73
2022/12/28 09:39:31;;;;;;;4.32;2.00;;;12.30;81.40;;;;;;6338329;22;20003;-76
2022/12/28 09:42:15;;;;;;;4.32;2.30;;;12.40;81.30;;;;;;6338234;22;20065;-73
2022/12/28 09:44:43;;;;;;;4.28;2.10;;;12.40;77.70;;;;;;6337760;22;20478;-73
2022/12/28 09:47:24;;;;;;;3.00;1.73;;;12.40;79.30;;;;;;6336665;22;19999;-73
2022/12/28 09:49:52;;;;;;;;;;;12.40;78.60;;;;;;6337869;22;20025;-73
2022/12/28 09:52:35;;;;;;;7.18;1.90;;;12.40;77.60;;;;;;6336816;22;19960;-72
2022/12/28 09:55:09;;;;;;;3.42;1.77;;;12.40;79.40;;;;;;6338856;22;20026;-76
2022/12/28 09:57:39;;;;;;;11.38;2.13;;;12.50;79.60;;;;;;6337405;22;19998;-76
2022/12/28 10:00:13;;;;;;;2.53;1.88;;;12.70;79.60;;;;;;6337458;22;20125;-76
2022/12/28 10:02:39;;;;;;;3.92;2.13;;;12.80;79.30;;;;;;6337625;22;19999;-77
2022/12/28 10:05:06;;;;;;;2.60;1.98;;;12.90;79.30;;;;;;6338604;22;20376;-77
2022/12/28 10:07:32;;;;;;;2.80;2.13;;;13.00;79.10;;;;;;6338591;22;20433;-76
2022/12/28 10:09:58;;;;;;;2.63;1.98;;;13.10;78.80;;;;;;6335485;22;20007;-76
2022/12/28 10:12:24;;;;;;;3.10;2.00;;;13.20;78.70;;;;;;6337550;22;20051;-76
2022/12/28 10:14:51;;;;;;;3.17;1.80;;;13.30;78.80;;;;;;6310951;22;20458;-76
2022/12/28 10:17:23;;;;;;;4.80;2.20;;;13.40;78.40;;;;;;6338443;22;20054;-77
2022/12/28 10:19:57;;;;;;;2.92;2.05;;;13.40;77.00;;;;;;6338217;22;20133;-76
2022/12/28 10:22:25;;;;;;;3.13;1.90;;;13.40;76.90;;;;;;6336265;22;20025;-76
2022/12/28 10:24:51;;;;;;;3.70;2.10;;;13.50;77.30;;;;;;6336857;22;20006;-76
2022/12/28 10:27:30;;;;;;;5.40;2.15;;;13.60;77.40;;;;;;6332507;22;19995;-76
2022/12/28 10:30:00;;;;;;;2.88;2.05;;;13.70;77.30;;;;;;6337154;22;20015;-77
2022/12/28 10:32:25;;;;;;;4.18;2.40;;;13.90;76.90;;;;;;6309572;22;20329;-76
2022/12/28 10:34:58;;;;;;;3.22;2.00;;;14.00;76.30;;;;;;6336862;22;20026;-76
2022/12/28 10:37:30;;;;;;;3.38;2.08;;;14.10;75.70;;;;;;6337226;22;20440;-77
2022/12/28 10:39:58;;;;;;;2.10;1.90;;;14.20;75.50;;;;;;6336318;22;20003;-76
2022/12/28 10:42:36;;;;;;;2.00;1.70;;;14.40;75.10;;;;;;6337343;22;19999;-76
2022/12/28 10:45:05;;;;;;;2.28;1.90;;;14.60;75.20;;;;;;6337321;22;20006;-76
2022/12/28 10:47:42;;;;;;;3.20;2.03;;;14.80;75.00;;;;;;6336172;22;20437;-76
2022/12/28 10:50:42;;;;;;;2.45;1.98;;;15.10;74.70;;;;;;6337843;22;20053;-76
2022/12/28 10:53:24;;;;;;;2.63;1.83;;;15.30;74.20;;;;;;6334628;22;19999;-76
2022/12/28 10:56:12;;;;;;;2.60;1.75;;;15.50;72.60;;;;;;6309252;22;20007;-76
2022/12/28 10:58:40;;;;;;;4.88;2.78;;;15.60;73.10;;;;;;6336989;22;20007;-76
2022/12/28 11:01:14;;;;;;;4.25;1.92;;;15.60;72.30;;;;;;6333877;22;20060;-76
2022/12/28 11:03:58;;;;;;;2.67;2.08;;;15.80;71.20;;;;;;6336860;22;20358;-77
2022/12/28 11:06:29;;;;;;;3.20;2.10;;;15.80;71.60;;;;;;6333762;22;20003;-76
2022/12/28 11:09:03;;;;;;;3.35;2.08;;;15.80;70.20;;;;;;6337589;22;20094;-76
2022/12/28 11:11:29;;;;;;;3.72;1.90;;;15.80;71.20;;;;;;6337270;22;20003;-76
2022/12/28 11:14:10;;;;;;;6.75;2.22;;;15.90;71.30;;;;;;6337148;22;20049;-77
2022/12/28 11:16:37;;;;;;;4.03;2.63;;;16.10;71.40;;;;;;6336080;22;20003;-77
2022/12/28 11:19:03;;;;;;;4.53;2.70;;;16.30;71.00;;;;;;6337654;22;20329;-76
2022/12/28 11:21:29;;;;;;;2.70;1.77;;;16.40;68.60;;;;;;6335181;22;20085;-77
2022/12/28 11:23:55;;;;;;;3.13;1.70;;;16.50;70.70;;;;;;6334743;22;20093;-76
2022/12/28 11:26:21;;;;;;;3.03;2.03;;;16.60;70.90;;;;;;6337011;22;20338;-76
2022/12/28 11:28:51;;;;;;;3.50;2.70;;;16.70;70.90;;;;;;6337448;22;20340;-76
2022/12/28 11:31:26;;;;;;;3.50;2.55;;;16.80;69.10;;;;;;6335860;22;20003;-76
2022/12/28 11:33:57;;;;;;;2.35;1.83;;;16.80;69.70;;;;;;6336353;22;19995;-77
2022/12/28 11:36:25;;;;;;;4.30;2.97;;;17.00;70.70;;;;;;6310045;22;20100;-76
2022/12/28 11:38:54;;;;;;;3.38;2.33;;;17.10;70.00;;;;;;6336970;22;20070;-76
2022/12/28 11:41:22;;;;;;;5.90;2.70;;;17.20;69.60;;;;;;6336799;22;20077;-76
2022/12/28 11:43:56;;;;;;;3.45;2.85;;;17.50;69.80;;;;;;6337007;22;19999;-77
2022/12/28 11:46:33;;;;;;;3.63;2.58;;;17.80;69.20;;;;;;6336765;22;20003;-77
2022/12/28 11:49:22;;;;;;;3.10;2.50;;;18.50;68.10;;;;;;6336644;22;19998;-77
2022/12/28 11:52:13;;;;;;;5.47;3.22;;;19.20;65.20;;;;;;6336242;22;20072;-77
2022/12/28 11:54:50;;;;;;;4.65;3.22;;;20.10;64.40;;;;;;6308838;22;20048;-77
2022/12/28 11:57:34;;;;;;;4.28;3.10;;;20.90;61.30;;;;;;6336762;22;20025;-77
2022/12/28 12:00:15;;;;;;;5.18;3.03;;;21.50;56.50;;;;;;6336378;22;20357;-77
2022/12/28 12:02:50;;;;;;;4.70;3.15;;;21.90;58.00;;;;;;6337124;22;20429;-77
2022/12/28 12:05:35;;;;;;;4.88;3.28;;;22.10;56.70;;;;;;6336959;22;20003;-77
2022/12/28 12:08:10;;;;;;;5.75;3.78;;;22.20;55.50;;;;;;6337275;22;20005;-77
2022/12/28 12:10:38;;;;;;;5.38;3.35;;;22.40;55.10;;;;;;6337150;22;20002;-77
2022/12/28 12:13:22;;;;;;;5.50;3.35;;;22.60;54.30;;;;;;6335883;22;19998;-76
2022/12/28 12:15:49;;;;;;;4.07;2.95;;;22.80;54.20;;;;;;6335483;22;20006;-76
2022/12/28 12:18:24;;;;;;;5.13;3.47;;;22.80;53.50;;;;;;6336976;22;19998;-75
2022/12/28 12:20:52;;;;;;;4.85;3.38;;;22.10;51.50;;;;;;6336131;22;20337;-75
2022/12/28 12:23:30;;;;;;;5.18;3.42;;;21.40;54.00;;;;;;6337482;22;20486;-75
2022/12/28 12:25:58;;;;;;;5.85;3.45;;;21.30;55.20;;;;;;6337062;22;20002;-74
2022/12/28 12:28:35;;;;;;;5.55;3.60;;;21.70;55.30;;;;;;6336855;22;20017;-75
2022/12/28 12:31:06;;;;;;;7.25;3.45;;;22.30;55.10;;;;;;6334610;22;20011;-75
2022/12/28 12:33:36;;;;;;;4.68;3.15;;;22.80;53.60;;;;;;6336120;22;20010;-75
2022/12/28 12:36:20;;;;;;;;;;;23.20;53.00;;;;;;6336383;22;20047;-75
2022/12/28 12:39:16;;;;;;;5.10;2.78;;;23.20;52.00;;;;;;6335418;22;19953;-75
2022/12/28 12:42:11;;;;;;;4.60;3.38;;;22.80;52.00;;;;;;6336968;22;20045;-75
2022/12/28 12:45:19;;;;;;;4.85;3.10;;;22.00;50.70;;;;;;6252278;22;20450;-75
2022/12/28 12:47:50;;;;;;;4.28;2.92;;;21.60;53.40;;;;;;6318376;22;20007;-75
2022/12/28 12:50:38;;;;;;;4.90;3.08;;;21.40;53.60;;;;;;6334445;22;20416;-75
2022/12/28 12:53:05;;;;;;;3.95;2.88;;;21.20;54.30;;;;;;6333500;22;20005;-75
2022/12/28 12:55:41;;;;;;;5.57;3.58;;;21.20;55.50;;;;;;6334711;22;19998;-75
2022/12/28 12:58:14;;;;;;;6.00;3.40;;;21.30;54.90;;;;;;6333883;22;20002;-79
2022/12/28 13:01:10;;;;;;;4.10;3.17;;;21.50;55.50;;;;;;6336664;22;20754;-78
2022/12/28 13:03:48;;;;;;;5.13;3.20;;;21.80;54.90;;;;;;6306736;22;20318;-77
2022/12/28 13:06:23;;;;;;;5.55;3.65;;;21.90;53.90;;;;;;6334026;22;20003;-77
2022/12/28 13:08:56;;;;;;;5.25;3.63;;;22.00;53.40;;;;;;6333327;22;20011;-77
2022/12/28 13:11:22;;;;;;;3.80;3.05;;;22.00;53.10;;;;;;6336128;22;20037;-77
2022/12/28 13:13:50;;;;;;;5.93;3.60;;;22.00;52.90;;;;;;6335849;22;20010;-77
2022/12/28 13:16:22;;;;;;;5.25;3.78;;;22.00;53.10;;;;;;6336387;22;20107;-77
2022/12/28 13:18:54;;;;;;;6.55;4.05;;;21.90;53.40;;;;;;6336423;22;20078;-78
2022/12/28 13:21:21;;;;;;;6.82;3.63;;;21.70;53.20;;;;;;6337447;22;20003;-78
2022/12/28 13:23:48;;;;;;;10.55;4.10;;;21.50;53.70;;;;;;6335636;22;20002;-77
2022/12/28 13:26:15;;;;;;;6.25;3.90;;;21.30;53.90;;;;;;6337658;22;20470;-77